Aviation Digital Data Service (ADDS)

Output produced by METARs form (2349 UTC 23 May 2022)
found at http://www.aviationweather.gov/metar/data/
 
HKEL 232200Z VRB02KT CAVOK 15/13 Q1023
TAF HKEL 231700Z 2318/2424 VRB05KT 9999 SCT018 BKN080 
     BECMG 2408/2411 11010KT 9999 FEW020CB SCT021 
     TEMPO 2413/2417 -TSRA FEW020CB SCT021 BKN080 
     BECMG 2420/2423 VRB02KT NSW SCT019 BKN080
       
HKGA 231800Z 16020KT SKC 30/21
HKJK 232300Z 36008KT CAVOK 16/12 Q1020 NOSIG
TAF HKJK 231700Z 2318/2424 04005KT 9999 BKN017 
     BECMG 2400/2404 21005KT FEW007 BKN015 
     BECMG 2408/2411 13010KT BKN024 
     BECMG 2420/2423 06005KT BKN019
       
HKKI 232100Z 00000KT CAVOK 21/17 Q1016
TAF HKKI 232300Z 2400/2506 06005KT 9999 FEW018 BKN080 
     BECMG 2408/2411 23010KT SCT026 
     TEMPO 2413/2417 -TSRA FEW021CB SCT022 BKN080 
     BECMG 2420/2423 05005KT NSW SCT019 BKN080
       
HKKT 232300Z 00000KT CAVOK 16/15
HKLO 232100Z 10006KT SKC 31/19
HKML 232100Z 20010KT 9999 -SHRA SCT022 28/25 Q1011
TAF HKML 232300Z 2400/2424 18005KT 9999 FEW019 
     BECMG 2409/2412 18015KT FEW026
       
HKMO 231900Z 18008KT 9999 FEW022 27/23 Q1012 NOSIG
TAF HKMO 232300Z 2400/2506 22005KT 9999 FEW020 
     BECMG 2409/2412 18015KT FEW026
       
HKNW 232200Z 04009KT 9999 FEW021 19/12 Q1021
TAF HKNW 232300Z 2400/2424 VRB02KT 9999 BKN016 
     BECMG 2408/2411 13010KT BKN024 
     BECMG 2420/2423 06005KT SCT018
       
HKNI 232000Z 21002KT CAVOK 18/14
HKWJ 231800Z 00000KT SKC 30/21 Q1007